sensor_id;sensor_type;location;lat;lon;timestamp;pressure;altitude;pressure_sealevel;temperature
19644;BMP180;9970;-36.854;174.870;2023-06-14T00:00:01;101448.00;;;12.30
19644;BMP180;9970;-36.854;174.870;2023-06-14T00:02:35;101439.00;;;12.30
19644;BMP180;9970;-36.854;174.870;2023-06-14T00:05:08;101431.00;;;12.30
19644;BMP180;9970;-36.854;174.870;2023-06-14T00:07:43;101431.00;;;12.40
19644;BMP180;9970;-36.854;174.870;2023-06-14T00:10:16;101434.00;;;12.40
19644;BMP180;9970;-36.854;174.870;2023-06-14T00:12:49;101418.00;;;12.40
19644;BMP180;9970;-36.854;174.870;2023-06-14T00:15:22;101420.00;;;12.40
19644;BMP180;9970;-36.854;174.870;2023-06-14T00:17:56;101411.00;;;12.40
19644;BMP180;9970;-36.854;174.870;2023-06-14T00:20:31;101410.00;;;12.40
19644;BMP180;9970;-36.854;174.870;2023-06-14T00:23:04;101409.00;;;12.40
19644;BMP180;9970;-36.854;174.870;2023-06-14T00:25:37;101416.00;;;12.40
19644;BMP180;9970;-36.854;174.870;2023-06-14T00:28:10;101407.00;;;12.40
19644;BMP180;9970;-36.854;174.870;2023-06-14T00:30:43;101403.00;;;12.50
19644;BMP180;9970;-36.854;174.870;2023-06-14T00:33:17;101402.00;;;12.50
19644;BMP180;9970;-36.854;174.870;2023-06-14T00:35:50;101412.00;;;12.60
19644;BMP180;9970;-36.854;174.870;2023-06-14T00:38:24;101396.00;;;12.60
19644;BMP180;9970;-36.854;174.870;2023-06-14T00:40:57;101402.00;;;12.60
19644;BMP180;9970;-36.854;174.870;2023-06-14T00:43:30;101392.00;;;12.70
19644;BMP180;9970;-36.854;174.870;2023-06-14T00:46:03;101388.00;;;12.70
19644;BMP180;9970;-36.854;174.870;2023-06-14T00:48:37;101392.00;;;12.70
19644;BMP180;9970;-36.854;174.870;2023-06-14T00:51:11;101393.00;;;12.80
19644;BMP180;9970;-36.854;174.870;2023-06-14T00:53:44;101403.00;;;12.80
19644;BMP180;9970;-36.854;174.870;2023-06-14T00:56:18;101401.00;;;12.80
19644;BMP180;9970;-36.854;174.870;2023-06-14T00:58:51;101395.00;;;12.80
19644;BMP180;9970;-36.854;174.870;2023-06-14T01:01:25;101396.00;;;12.90
19644;BMP180;9970;-36.854;174.870;2023-06-14T01:04:02;101394.00;;;12.90
19644;BMP180;9970;-36.854;174.870;2023-06-14T01:07:04;101387.00;;;12.90
19644;BMP180;9970;-36.854;174.870;2023-06-14T01:12:45;101387.00;;;13.00
19644;BMP180;9970;-36.854;174.870;2023-06-14T01:15:18;101375.00;;;13.00
19644;BMP180;9970;-36.854;174.870;2023-06-14T01:17:53;101370.00;;;13.00
19644;BMP180;9970;-36.854;174.870;2023-06-14T01:20:28;101371.00;;;13.10
19644;BMP180;9970;-36.854;174.870;2023-06-14T01:23:02;101373.00;;;13.10
19644;BMP180;9970;-36.854;174.870;2023-06-14T01:25:36;101366.00;;;13.10
19644;BMP180;9970;-36.854;174.870;2023-06-14T01:28:09;101366.00;;;13.10
19644;BMP180;9970;-36.854;174.870;2023-06-14T01:30:44;101369.00;;;13.20
19644;BMP180;9970;-36.854;174.870;2023-06-14T01:33:19;101358.00;;;13.20
19644;BMP180;9970;-36.854;174.870;2023-06-14T01:35:54;101357.00;;;13.20
19644;BMP180;9970;-36.854;174.870;2023-06-14T01:38:28;101352.00;;;13.30
19644;BMP180;9970;-36.854;174.870;2023-06-14T01:41:01;101349.00;;;13.30
19644;BMP180;9970;-36.854;174.870;2023-06-14T01:43:35;101356.00;;;13.30
19644;BMP180;9970;-36.854;174.870;2023-06-14T01:46:09;101343.00;;;13.30
19644;BMP180;9970;-36.854;174.870;2023-06-14T01:48:42;101341.00;;;13.30
19644;BMP180;9970;-36.854;174.870;2023-06-14T01:51:16;101343.00;;;13.30
19644;BMP180;9970;-36.854;174.870;2023-06-14T01:53:49;101344.00;;;13.40
19644;BMP180;9970;-36.854;174.870;2023-06-14T01:56:22;101345.00;;;13.40
19644;BMP180;9970;-36.854;174.870;2023-06-14T01:58:55;101345.00;;;13.40
19644;BMP180;9970;-36.854;174.870;2023-06-14T02:01:28;101337.00;;;13.40
19644;BMP180;9970;-36.854;174.870;2023-06-14T02:04:02;101332.00;;;13.40
19644;BMP180;9970;-36.854;174.870;2023-06-14T02:06:35;101342.00;;;13.40
19644;BMP180;9970;-36.854;174.870;2023-06-14T02:09:08;101333.00;;;13.40
19644;BMP180;9970;-36.854;174.870;2023-06-14T02:11:40;101340.00;;;13.40
19644;BMP180;9970;-36.854;174.870;2023-06-14T02:14:14;101343.00;;;13.40
19644;BMP180;9970;-36.854;174.870;2023-06-14T02:16:48;101340.00;;;13.40
19644;BMP180;9970;-36.854;174.870;2023-06-14T02:19:21;101345.00;;;13.40
19644;BMP180;9970;-36.854;174.870;2023-06-14T02:21:53;101348.00;;;13.40
19644;BMP180;9970;-36.854;174.870;2023-06-14T02:24:27;101337.00;;;13.40
19644;BMP180;9970;-36.854;174.870;2023-06-14T02:27:00;101348.00;;;13.40
19644;BMP180;9970;-36.854;174.870;2023-06-14T02:29:33;101346.00;;;13.40
19644;BMP180;9970;-36.854;174.870;2023-06-14T02:32:06;101342.00;;;13.40
19644;BMP180;9970;-36.854;174.870;2023-06-14T02:34:47;101347.00;;;13.40
19644;BMP180;9970;-36.854;174.870;2023-06-14T02:37:20;101343.00;;;13.40
19644;BMP180;9970;-36.854;174.870;2023-06-14T02:39:54;101338.00;;;13.40
19644;BMP180;9970;-36.854;174.870;2023-06-14T02:42:27;101338.00;;;13.40
19644;BMP180;9970;-36.854;174.870;2023-06-14T02:45:00;101333.00;;;13.40
19644;BMP180;9970;-36.854;174.870;2023-06-14T02:47:33;101341.00;;;13.40
19644;BMP180;9970;-36.854;174.870;2023-06-14T02:50:07;101342.00;;;13.40
19644;BMP180;9970;-36.854;174.870;2023-06-14T02:52:41;101345.00;;;13.40
19644;BMP180;9970;-36.854;174.870;2023-06-14T02:55:15;101329.00;;;13.40
19644;BMP180;9970;-36.854;174.870;2023-06-14T02:57:48;101343.00;;;13.40
19644;BMP180;9970;-36.854;174.870;2023-06-14T03:00:21;101336.00;;;13.40
19644;BMP180;9970;-36.854;174.870;2023-06-14T03:02:54;101339.00;;;13.30
19644;BMP180;9970;-36.854;174.870;2023-06-14T03:05:27;101346.00;;;13.30
19644;BMP180;9970;-36.854;174.870;2023-06-14T03:08:00;101345.00;;;13.40
19644;BMP180;9970;-36.854;174.870;2023-06-14T03:10:33;101339.00;;;13.30
19644;BMP180;9970;-36.854;174.870;2023-06-14T03:13:07;101335.00;;;13.30
19644;BMP180;9970;-36.854;174.870;2023-06-14T03:15:40;101335.00;;;13.30
19644;BMP180;9970;-36.854;174.870;2023-06-14T03:18:13;101334.00;;;13.30
19644;BMP180;9970;-36.854;174.870;2023-06-14T03:20:46;101330.00;;;13.30
19644;BMP180;9970;-36.854;174.870;2023-06-14T03:23:19;101336.00;;;13.30
19644;BMP180;9970;-36.854;174.870;2023-06-14T03:25:52;101332.00;;;13.30
19644;BMP180;9970;-36.854;174.870;2023-06-14T03:28:25;101324.00;;;13.30
19644;BMP180;9970;-36.854;174.870;2023-06-14T03:30:58;101330.00;;;13.20
19644;BMP180;9970;-36.854;174.870;2023-06-14T03:33:32;101332.00;;;13.20
19644;BMP180;9970;-36.854;174.870;2023-06-14T03:36:05;101328.00;;;13.20
19644;BMP180;9970;-36.854;174.870;2023-06-14T03:38:42;101333.00;;;13.20
19644;BMP180;9970;-36.854;174.870;2023-06-14T03:41:15;101324.00;;;13.20
19644;BMP180;9970;-36.854;174.870;2023-06-14T03:43:48;101334.00;;;13.20
19644;BMP180;9970;-36.854;174.870;2023-06-14T03:46:21;101325.00;;;13.20
19644;BMP180;9970;-36.854;174.870;2023-06-14T03:48:53;101323.00;;;13.20
19644;BMP180;9970;-36.854;174.870;2023-06-14T03:51:26;101328.00;;;13.20
19644;BMP180;9970;-36.854;174.870;2023-06-14T03:54:04;101327.00;;;13.20
19644;BMP180;9970;-36.854;174.870;2023-06-14T03:56:38;101326.00;;;13.20
19644;BMP180;9970;-36.854;174.870;2023-06-14T03:59:11;101332.00;;;13.20
19644;BMP180;9970;-36.854;174.870;2023-06-14T04:01:44;101335.00;;;13.20
19644;BMP180;9970;-36.854;174.870;2023-06-14T04:04:17;101330.00;;;13.20
19644;BMP180;9970;-36.854;174.870;2023-06-14T04:06:50;101330.00;;;13.20
19644;BMP180;9970;-36.854;174.870;2023-06-14T04:09:23;101320.00;;;13.20
19644;BMP180;9970;-36.854;174.870;2023-06-14T04:11:56;101329.00;;;13.10
19644;BMP180;9970;-36.854;174.870;2023-06-14T04:14:29;101328.00;;;13.10
19644;BMP180;9970;-36.854;174.870;2023-06-14T04:17:08;101331.00;;;13.10
19644;BMP180;9970;-36.854;174.870;2023-06-14T04:19:41;101333.00;;;13.10
19644;BMP180;9970;-36.854;174.870;2023-06-14T04:22:14;101333.00;;;13.10
19644;BMP180;9970;-36.854;174.870;2023-06-14T04:24:47;101335.00;;;13.10
19644;BMP180;9970;-36.854;174.870;2023-06-14T04:27:21;101336.00;;;13.10
19644;BMP180;9970;-36.854;174.870;2023-06-14T04:29:56;101336.00;;;13.10
19644;BMP180;9970;-36.854;174.870;2023-06-14T04:32:30;101343.00;;;13.10
19644;BMP180;9970;-36.854;174.870;2023-06-14T04:35:10;101337.00;;;13.10
19644;BMP180;9970;-36.854;174.870;2023-06-14T04:37:38;101339.00;;;13.10
19644;BMP180;9970;-36.854;174.870;2023-06-14T04:40:12;101334.00;;;13.10
19644;BMP180;9970;-36.854;174.870;2023-06-14T04:42:45;101337.00;;;13.00
19644;BMP180;9970;-36.854;174.870;2023-06-14T04:45:18;101333.00;;;13.00
19644;BMP180;9970;-36.854;174.870;2023-06-14T04:47:51;101333.00;;;13.00
19644;BMP180;9970;-36.854;174.870;2023-06-14T04:50:25;101338.00;;;13.00
19644;BMP180;9970;-36.854;174.870;2023-06-14T04:52:58;101330.00;;;13.00
19644;BMP180;9970;-36.854;174.870;2023-06-14T04:55:31;101337.00;;;13.00
19644;BMP180;9970;-36.854;174.870;2023-06-14T04:58:04;101338.00;;;13.00
19644;BMP180;9970;-36.854;174.870;2023-06-14T05:00:37;101341.00;;;13.00
19644;BMP180;9970;-36.854;174.870;2023-06-14T05:03:10;101342.00;;;13.00
19644;BMP180;9970;-36.854;174.870;2023-06-14T05:05:44;101336.00;;;13.00
19644;BMP180;9970;-36.854;174.870;2023-06-14T05:08:17;101343.00;;;13.00
19644;BMP180;9970;-36.854;174.870;2023-06-14T05:10:50;101340.00;;;13.00
19644;BMP180;9970;-36.854;174.870;2023-06-14T05:13:23;101337.00;;;13.00
19644;BMP180;9970;-36.854;174.870;2023-06-14T05:15:57;101335.00;;;13.00
19644;BMP180;9970;-36.854;174.870;2023-06-14T05:18:31;101341.00;;;13.00
19644;BMP180;9970;-36.854;174.870;2023-06-14T05:21:05;101338.00;;;13.00
19644;BMP180;9970;-36.854;174.870;2023-06-14T05:23:38;101337.00;;;12.90
19644;BMP180;9970;-36.854;174.870;2023-06-14T05:26:11;101341.00;;;12.90
19644;BMP180;9970;-36.854;174.870;2023-06-14T05:28:44;101341.00;;;12.90
19644;BMP180;9970;-36.854;174.870;2023-06-14T05:31:17;101344.00;;;12.80
19644;BMP180;9970;-36.854;174.870;2023-06-14T05:33:50;101356.00;;;12.80
19644;BMP180;9970;-36.854;174.870;2023-06-14T05:36:23;101351.00;;;12.80
19644;BMP180;9970;-36.854;174.870;2023-06-14T05:38:56;101344.00;;;12.80
19644;BMP180;9970;-36.854;174.870;2023-06-14T05:41:30;101352.00;;;12.80
19644;BMP180;9970;-36.854;174.870;2023-06-14T05:44:04;101357.00;;;12.80
19644;BMP180;9970;-36.854;174.870;2023-06-14T05:46:37;101368.00;;;12.80
19644;BMP180;9970;-36.854;174.870;2023-06-14T05:49:11;101369.00;;;12.70
19644;BMP180;9970;-36.854;174.870;2023-06-14T05:51:44;101375.00;;;12.70
19644;BMP180;9970;-36.854;174.870;2023-06-14T05:54:17;101374.00;;;12.70
19644;BMP180;9970;-36.854;174.870;2023-06-14T05:56:50;101371.00;;;12.70
19644;BMP180;9970;-36.854;174.870;2023-06-14T05:59:23;101369.00;;;12.70
19644;BMP180;9970;-36.854;174.870;2023-06-14T06:01:56;101372.00;;;12.60
19644;BMP180;9970;-36.854;174.870;2023-06-14T06:04:29;101370.00;;;12.60
19644;BMP180;9970;-36.854;174.870;2023-06-14T06:07:02;101377.00;;;12.60
19644;BMP180;9970;-36.854;174.870;2023-06-14T06:09:35;101369.00;;;12.60
19644;BMP180;9970;-36.854;174.870;2023-06-14T06:12:08;101371.00;;;12.60
19644;BMP180;9970;-36.854;174.870;2023-06-14T06:14:41;101379.00;;;12.60
19644;BMP180;9970;-36.854;174.870;2023-06-14T06:17:15;101373.00;;;12.50
19644;BMP180;9970;-36.854;174.870;2023-06-14T06:19:48;101374.00;;;12.50
19644;BMP180;9970;-36.854;174.870;2023-06-14T06:22:21;101377.00;;;12.50
19644;BMP180;9970;-36.854;174.870;2023-06-14T06:24:54;101380.00;;;12.50
19644;BMP180;9970;-36.854;174.870;2023-06-14T06:27:27;101379.00;;;12.50
19644;BMP180;9970;-36.854;174.870;2023-06-14T06:30:00;101383.00;;;12.40
19644;BMP180;9970;-36.854;174.870;2023-06-14T06:32:33;101382.00;;;12.40
19644;BMP180;9970;-36.854;174.870;2023-06-14T06:35:06;101381.00;;;12.40
19644;BMP180;9970;-36.854;174.870;2023-06-14T06:37:41;101386.00;;;12.40
19644;BMP180;9970;-36.854;174.870;2023-06-14T06:40:14;101385.00;;;12.30
19644;BMP180;9970;-36.854;174.870;2023-06-14T06:42:47;101377.00;;;12.30
19644;BMP180;9970;-36.854;174.870;2023-06-14T06:45:21;101389.00;;;12.30
19644;BMP180;9970;-36.854;174.870;2023-06-14T06:47:54;101388.00;;;12.30
19644;BMP180;9970;-36.854;174.870;2023-06-14T06:50:27;101391.00;;;12.30
19644;BMP180;9970;-36.854;174.870;2023-06-14T06:53:00;101395.00;;;12.20
19644;BMP180;9970;-36.854;174.870;2023-06-14T06:55:33;101387.00;;;12.20
19644;BMP180;9970;-36.854;174.870;2023-06-14T06:58:06;101386.00;;;12.20
19644;BMP180;9970;-36.854;174.870;2023-06-14T07:00:39;101393.00;;;12.20
19644;BMP180;9970;-36.854;174.870;2023-06-14T07:03:12;101392.00;;;12.20
19644;BMP180;9970;-36.854;174.870;2023-06-14T07:05:45;101400.00;;;12.20
19644;BMP180;9970;-36.854;174.870;2023-06-14T07:08:18;101398.00;;;12.10
19644;BMP180;9970;-36.854;174.870;2023-06-14T07:10:51;101393.00;;;12.10
19644;BMP180;9970;-36.854;174.870;2023-06-14T07:13:24;101401.00;;;12.10
19644;BMP180;9970;-36.854;174.870;2023-06-14T07:15:58;101402.00;;;12.10
19644;BMP180;9970;-36.854;174.870;2023-06-14T07:18:32;101394.00;;;12.10
19644;BMP180;9970;-36.854;174.870;2023-06-14T07:21:06;101389.00;;;12.10
19644;BMP180;9970;-36.854;174.870;2023-06-14T07:23:39;101386.00;;;12.10
19644;BMP180;9970;-36.854;174.870;2023-06-14T07:26:13;101387.00;;;12.00
19644;BMP180;9970;-36.854;174.870;2023-06-14T07:28:46;101386.00;;;12.00
19644;BMP180;9970;-36.854;174.870;2023-06-14T07:31:19;101387.00;;;12.00
19644;BMP180;9970;-36.854;174.870;2023-06-14T07:33:52;101393.00;;;12.00
19644;BMP180;9970;-36.854;174.870;2023-06-14T07:36:26;101397.00;;;12.00
19644;BMP180;9970;-36.854;174.870;2023-06-14T07:38:59;101400.00;;;12.00
19644;BMP180;9970;-36.854;174.870;2023-06-14T07:41:33;101401.00;;;12.00
19644;BMP180;9970;-36.854;174.870;2023-06-14T07:44:06;101402.00;;;11.90
19644;BMP180;9970;-36.854;174.870;2023-06-14T07:46:39;101402.00;;;11.90
19644;BMP180;9970;-36.854;174.870;2023-06-14T07:49:12;101393.00;;;11.90
19644;BMP180;9970;-36.854;174.870;2023-06-14T07:51:45;101409.00;;;11.90
19644;BMP180;9970;-36.854;174.870;2023-06-14T07:54:19;101403.00;;;11.90
19644;BMP180;9970;-36.854;174.870;2023-06-14T07:56:53;101397.00;;;11.90
19644;BMP180;9970;-36.854;174.870;2023-06-14T07:59:27;101411.00;;;11.90
19644;BMP180;9970;-36.854;174.870;2023-06-14T08:01:59;101410.00;;;11.90
19644;BMP180;9970;-36.854;174.870;2023-06-14T08:04:33;101403.00;;;11.90
19644;BMP180;9970;-36.854;174.870;2023-06-14T08:07:05;101401.00;;;11.90
19644;BMP180;9970;-36.854;174.870;2023-06-14T08:09:38;101406.00;;;11.80
19644;BMP180;9970;-36.854;174.870;2023-06-14T08:12:11;101394.00;;;11.80
19644;BMP180;9970;-36.854;174.870;2023-06-14T08:14:44;101401.00;;;11.80
19644;BMP180;9970;-36.854;174.870;2023-06-14T08:17:18;101391.00;;;11.80
19644;BMP180;9970;-36.854;174.870;2023-06-14T08:19:51;101399.00;;;11.90
19644;BMP180;9970;-36.854;174.870;2023-06-14T08:22:26;101386.00;;;11.80
19644;BMP180;9970;-36.854;174.870;2023-06-14T08:25:00;101386.00;;;11.80
19644;BMP180;9970;-36.854;174.870;2023-06-14T08:27:34;101394.00;;;11.80
19644;BMP180;9970;-36.854;174.870;2023-06-14T08:30:08;101399.00;;;11.80
19644;BMP180;9970;-36.854;174.870;2023-06-14T08:32:41;101389.00;;;11.80
19644;BMP180;9970;-36.854;174.870;2023-06-14T08:35:14;101393.00;;;11.80
19644;BMP180;9970;-36.854;174.870;2023-06-14T08:37:47;101404.00;;;11.80
19644;BMP180;9970;-36.854;174.870;2023-06-14T08:40:21;101404.00;;;11.70
19644;BMP180;9970;-36.854;174.870;2023-06-14T08:42:57;101402.00;;;11.70
19644;BMP180;9970;-36.854;174.870;2023-06-14T08:45:30;101402.00;;;11.70
19644;BMP180;9970;-36.854;174.870;2023-06-14T08:48:03;101404.00;;;11.70
19644;BMP180;9970;-36.854;174.870;2023-06-14T08:50:37;101413.00;;;11.70
19644;BMP180;9970;-36.854;174.870;2023-06-14T08:53:12;101405.00;;;11.60
19644;BMP180;9970;-36.854;174.870;2023-06-14T08:55:47;101406.00;;;11.60
19644;BMP180;9970;-36.854;174.870;2023-06-14T08:58:21;101407.00;;;11.50
19644;BMP180;9970;-36.854;174.870;2023-06-14T09:00:55;101408.00;;;11.50
19644;BMP180;9970;-36.854;174.870;2023-06-14T09:03:28;101404.00;;;11.50
19644;BMP180;9970;-36.854;174.870;2023-06-14T09:06:04;101413.00;;;11.50
19644;BMP180;9970;-36.854;174.870;2023-06-14T09:08:42;101402.00;;;11.50
19644;BMP180;9970;-36.854;174.870;2023-06-14T09:11:14;101409.00;;;11.50
19644;BMP180;9970;-36.854;174.870;2023-06-14T09:13:48;101405.00;;;11.50
19644;BMP180;9970;-36.854;174.870;2023-06-14T09:16:21;101410.00;;;11.50
19644;BMP180;9970;-36.854;174.870;2023-06-14T09:18:56;101397.00;;;11.50
19644;BMP180;9970;-36.854;174.870;2023-06-14T09:21:33;101401.00;;;11.40
19644;BMP180;9970;-36.854;174.870;2023-06-14T09:24:05;101392.00;;;11.40
19644;BMP180;9970;-36.854;174.870;2023-06-14T09:26:39;101391.00;;;11.40
19644;BMP180;9970;-36.854;174.870;2023-06-14T09:29:12;101391.00;;;11.40
19644;BMP180;9970;-36.854;174.870;2023-06-14T09:31:46;101392.00;;;11.40
19644;BMP180;9970;-36.854;174.870;2023-06-14T09:34:21;101389.00;;;11.40
19644;BMP180;9970;-36.854;174.870;2023-06-14T09:36:55;101383.00;;;11.40
19644;BMP180;9970;-36.854;174.870;2023-06-14T09:39:27;101392.00;;;11.40
19644;BMP180;9970;-36.854;174.870;2023-06-14T09:42:01;101392.00;;;11.40
19644;BMP180;9970;-36.854;174.870;2023-06-14T09:44:34;101393.00;;;11.40
19644;BMP180;9970;-36.854;174.870;2023-06-14T09:47:07;101380.00;;;11.40
19644;BMP180;9970;-36.854;174.870;2023-06-14T09:49:40;101387.00;;;11.40
19644;BMP180;9970;-36.854;174.870;2023-06-14T09:52:15;101387.00;;;11.40
19644;BMP180;9970;-36.854;174.870;2023-06-14T09:54:48;101384.00;;;11.40
19644;BMP180;9970;-36.854;174.870;2023-06-14T09:57:25;101385.00;;;11.30
19644;BMP180;9970;-36.854;174.870;2023-06-14T10:00:02;101382.00;;;11.30
19644;BMP180;9970;-36.854;174.870;2023-06-14T10:02:37;101384.00;;;11.30
19644;BMP180;9970;-36.854;174.870;2023-06-14T10:05:11;101379.00;;;11.30
19644;BMP180;9970;-36.854;174.870;2023-06-14T10:08:04;101379.00;;;11.30
19644;BMP180;9970;-36.854;174.870;2023-06-14T10:10:35;101384.00;;;11.30
19644;BMP180;9970;-36.854;174.870;2023-06-14T10:13:08;101380.00;;;11.30
19644;BMP180;9970;-36.854;174.870;2023-06-14T10:18:43;101391.00;;;11.30
19644;BMP180;9970;-36.854;174.870;2023-06-14T10:24:26;101390.00;;;11.20
19644;BMP180;9970;-36.854;174.870;2023-06-14T10:26:57;101392.00;;;11.10
19644;BMP180;9970;-36.854;174.870;2023-06-14T10:29:31;101385.00;;;11.10
19644;BMP180;9970;-36.854;174.870;2023-06-14T10:32:05;101378.00;;;11.10
19644;BMP180;9970;-36.854;174.870;2023-06-14T10:34:39;101383.00;;;11.10
19644;BMP180;9970;-36.854;174.870;2023-06-14T10:37:14;101389.00;;;11.00
19644;BMP180;9970;-36.854;174.870;2023-06-14T10:39:48;101389.00;;;11.00
19644;BMP180;9970;-36.854;174.870;2023-06-14T10:42:21;101391.00;;;10.90
19644;BMP180;9970;-36.854;174.870;2023-06-14T10:44:55;101389.00;;;11.00
19644;BMP180;9970;-36.854;174.870;2023-06-14T10:47:36;101391.00;;;11.00
19644;BMP180;9970;-36.854;174.870;2023-06-14T10:50:09;101388.00;;;11.00
19644;BMP180;9970;-36.854;174.870;2023-06-14T10:52:45;101389.00;;;11.00
19644;BMP180;9970;-36.854;174.870;2023-06-14T10:55:18;101392.00;;;11.00
19644;BMP180;9970;-36.854;174.870;2023-06-14T10:57:56;101387.00;;;11.00
19644;BMP180;9970;-36.854;174.870;2023-06-14T11:00:30;101383.00;;;10.90
19644;BMP180;9970;-36.854;174.870;2023-06-14T11:06:14;101383.00;;;10.80
19644;BMP180;9970;-36.854;174.870;2023-06-14T11:09:24;101394.00;;;10.80
19644;BMP180;9970;-36.854;174.870;2023-06-14T11:11:52;101384.00;;;10.70
19644;BMP180;9970;-36.854;174.870;2023-06-14T11:14:26;101393.00;;;10.70
19644;BMP180;9970;-36.854;174.870;2023-06-14T11:17:04;101377.00;;;10.60
19644;BMP180;9970;-36.854;174.870;2023-06-14T11:19:37;101385.00;;;10.60
19644;BMP180;9970;-36.854;174.870;2023-06-14T11:22:11;101379.00;;;10.60
19644;BMP180;9970;-36.854;174.870;2023-06-14T11:24:45;101385.00;;;10.60
19644;BMP180;9970;-36.854;174.870;2023-06-14T11:27:19;101385.00;;;10.60
19644;BMP180;9970;-36.854;174.870;2023-06-14T11:29:54;101379.00;;;10.60
19644;BMP180;9970;-36.854;174.870;2023-06-14T11:32:27;101370.00;;;10.60
19644;BMP180;9970;-36.854;174.870;2023-06-14T11:35:00;101365.00;;;10.60
19644;BMP180;9970;-36.854;174.870;2023-06-14T11:37:33;101362.00;;;10.60
19644;BMP180;9970;-36.854;174.870;2023-06-14T11:40:08;101368.00;;;10.60
19644;BMP180;9970;-36.854;174.870;2023-06-14T11:42:43;101351.00;;;10.60
19644;BMP180;9970;-36.854;174.870;2023-06-14T11:45:16;101370.00;;;10.60
19644;BMP180;9970;-36.854;174.870;2023-06-14T11:47:50;101367.00;;;10.60
19644;BMP180;9970;-36.854;174.870;2023-06-14T11:50:24;101363.00;;;10.60
19644;BMP180;9970;-36.854;174.870;2023-06-14T11:52:58;101369.00;;;10.50
19644;BMP180;9970;-36.854;174.870;2023-06-14T11:55:36;101360.00;;;10.50
19644;BMP180;9970;-36.854;174.870;2023-06-14T11:58:07;101361.00;;;10.50
19644;BMP180;9970;-36.854;174.870;2023-06-14T12:00:40;101347.00;;;10.50
19644;BMP180;9970;-36.854;174.870;2023-06-14T12:03:13;101368.00;;;10.50
19644;BMP180;9970;-36.854;174.870;2023-06-14T12:05:46;101362.00;;;10.50
19644;BMP180;9970;-36.854;174.870;2023-06-14T12:08:19;101355.00;;;10.50
19644;BMP180;9970;-36.854;174.870;2023-06-14T12:10:52;101351.00;;;10.50
19644;BMP180;9970;-36.854;174.870;2023-06-14T12:13:26;101348.00;;;10.50
19644;BMP180;9970;-36.854;174.870;2023-06-14T12:15:58;101357.00;;;10.40
19644;BMP180;9970;-36.854;174.870;2023-06-14T12:18:35;101343.00;;;10.40
19644;BMP180;9970;-36.854;174.870;2023-06-14T12:21:08;101343.00;;;10.40
19644;BMP180;9970;-36.854;174.870;2023-06-14T12:23:51;101345.00;;;10.30
19644;BMP180;9970;-36.854;174.870;2023-06-14T12:26:25;101341.00;;;10.30
19644;BMP180;9970;-36.854;174.870;2023-06-14T12:28:59;101336.00;;;10.30
19644;BMP180;9970;-36.854;174.870;2023-06-14T12:31:31;101344.00;;;10.30
19644;BMP180;9970;-36.854;174.870;2023-06-14T12:34:04;101338.00;;;10.30
19644;BMP180;9970;-36.854;174.870;2023-06-14T12:36:37;101344.00;;;10.30
19644;BMP180;9970;-36.854;174.870;2023-06-14T12:39:11;101345.00;;;10.30
19644;BMP180;9970;-36.854;174.870;2023-06-14T12:41:44;101337.00;;;10.30
19644;BMP180;9970;-36.854;174.870;2023-06-14T12:44:17;101339.00;;;10.20
19644;BMP180;9970;-36.854;174.870;2023-06-14T12:46:50;101339.00;;;10.20
19644;BMP180;9970;-36.854;174.870;2023-06-14T12:49:26;101325.00;;;10.20
19644;BMP180;9970;-36.854;174.870;2023-06-14T12:51:59;101331.00;;;10.20
19644;BMP180;9970;-36.854;174.870;2023-06-14T12:54:32;101343.00;;;10.20
19644;BMP180;9970;-36.854;174.870;2023-06-14T12:57:07;101336.00;;;10.10
19644;BMP180;9970;-36.854;174.870;2023-06-14T12:59:41;101332.00;;;10.10
19644;BMP180;9970;-36.854;174.870;2023-06-14T13:02:19;101324.00;;;10.10
19644;BMP180;9970;-36.854;174.870;2023-06-14T13:04:54;101324.00;;;10.10
19644;BMP180;9970;-36.854;174.870;2023-06-14T13:07:28;101336.00;;;10.10
19644;BMP180;9970;-36.854;174.870;2023-06-14T13:10:01;101332.00;;;10.10
19644;BMP180;9970;-36.854;174.870;2023-06-14T13:12:34;101329.00;;;10.10
19644;BMP180;9970;-36.854;174.870;2023-06-14T13:15:08;101327.00;;;10.10
19644;BMP180;9970;-36.854;174.870;2023-06-14T13:17:40;101326.00;;;10.10
19644;BMP180;9970;-36.854;174.870;2023-06-14T13:20:14;101331.00;;;10.10
19644;BMP180;9970;-36.854;174.870;2023-06-14T13:22:49;101324.00;;;10.20
19644;BMP180;9970;-36.854;174.870;2023-06-14T13:25:22;101320.00;;;10.20
19644;BMP180;9970;-36.854;174.870;2023-06-14T13:27:56;101321.00;;;10.20
19644;BMP180;9970;-36.854;174.870;2023-06-14T13:30:28;101306.00;;;10.20
19644;BMP180;9970;-36.854;174.870;2023-06-14T13:33:01;101307.00;;;10.20
19644;BMP180;9970;-36.854;174.870;2023-06-14T13:35:34;101310.00;;;10.20
19644;BMP180;9970;-36.854;174.870;2023-06-14T13:38:08;101316.00;;;10.20
19644;BMP180;9970;-36.854;174.870;2023-06-14T13:40:41;101315.00;;;10.20
19644;BMP180;9970;-36.854;174.870;2023-06-14T13:43:14;101311.00;;;10.20
19644;BMP180;9970;-36.854;174.870;2023-06-14T13:45:47;101318.00;;;10.20
19644;BMP180;9970;-36.854;174.870;2023-06-14T13:48:19;101315.00;;;10.20
19644;BMP180;9970;-36.854;174.870;2023-06-14T13:50:52;101318.00;;;10.20
19644;BMP180;9970;-36.854;174.870;2023-06-14T13:53:25;101315.00;;;10.20
19644;BMP180;9970;-36.854;174.870;2023-06-14T13:55:58;101306.00;;;10.20
19644;BMP180;9970;-36.854;174.870;2023-06-14T13:58:31;101311.00;;;10.20
19644;BMP180;9970;-36.854;174.870;2023-06-14T14:01:04;101311.00;;;10.20
19644;BMP180;9970;-36.854;174.870;2023-06-14T14:03:38;101312.00;;;10.20
19644;BMP180;9970;-36.854;174.870;2023-06-14T14:06:11;101305.00;;;10.20
19644;BMP180;9970;-36.854;174.870;2023-06-14T14:08:44;101306.00;;;10.20
19644;BMP180;9970;-36.854;174.870;2023-06-14T14:11:17;101303.00;;;10.20
19644;BMP180;9970;-36.854;174.870;2023-06-14T14:13:50;101305.00;;;10.20
19644;BMP180;9970;-36.854;174.870;2023-06-14T14:16:23;101306.00;;;10.30
19644;BMP180;9970;-36.854;174.870;2023-06-14T14:18:56;101302.00;;;10.30